Date,TemperatureHighF,TemperatureAvgF,TemperatureLowF,DewpointHighF,DewpointAvgF,DewpointLowF,HumidityHigh,HumidityAvg,HumidityLow,PressureMaxIn,PressureMinIn,WindSpeedMaxMPH,WindSpeedAvgMPH,GustSpeedMaxMPH,PrecipitationSumIn
2012-12-1,61,59,58,61,58,57,99,96,91,30.03,29.86,25,8,35,0.24
2012-12-2,62,54,43,61,53,43,100,94,73,30.12,29.72,33,9,45,1.07
2012-12-3,57,49,38,51,47,38,100,93,78,30.23,30.12,9,2,10,0.01
2012-12-4,58,54,50,57,53,49,100,94,80,30.23,30.13,15,3,19,0.28
2012-12-5,62,59,55,61,58,55,100,99,96,30.16,30.10,12,2,20,0.04
2012-12-6,58,51,40,55,49,40,100,92,80,30.17,30.09,8,2,12,0.01
2012-12-7,56,44,36,51,42,36,100,95,74,30.19,30.08,5,1,6,0.01
2012-12-8,58,44,35,52,43,35,100,95,73,30.17,30.06,4,1,8,0.02
2012-12-9,61,47,38,53,44,38,100,91,63,30.23,30.12,6,1,8,0.01
2012-12-10,64,48,39,53,45,39,100,91,65,30.27,30.12,5,1,8,0.01
2012-12-11,53,48,40,52,47,41,100,96,83,30.12,29.86,11,3,19,0.12
2012-12-12,53,48,36,49,44,35,99,86,72,29.92,29.85,12,3,20,0.06
2012-12-13,53,40,32,44,37,32,100,91,62,29.98,29.87,7,1,11,0.01
2012-12-14,51,42,33,45,40,33,100,93,68,30.07,29.85,6,1,9,0.01
2012-12-15,48,42,33,46,41,32,100,96,90,30.10,30.01,8,2,14,0.07
2012-12-16,55,51,45,55,49,43,98,94,90,30.12,30.02,17,5,25,0.03
2012-12-17,56,53,44,56,50,38,99,91,80,30.07,29.99,21,6,28,0.04
2012-12-18,51,43,35,42,36,30,92,75,60,30.23,30.03,13,3,20,0.04
2012-12-19,53,38,28,41,33,27,95,82,57,30.35,30.22,6,2,9,0.00
2012-12-20,56,50,38,51,45,35,94,81,70,30.22,29.96,19,8,30,0.19
2012-12-21,56,53,52,54,52,50,99,95,88,29.96,29.84,21,10,34,1.80
2012-12-22,56,53,50,54,48,45,95,84,68,30.06,29.83,20,9,34,0.09
2012-12-23,56,52,43,56,51,43,100,96,85,30.06,29.86,37,8,45,0.84
2012-12-24,54,45,39,50,43,39,100,92,71,30.24,30.05,5,1,6,0.01
2012-12-25,49,45,40,48,44,39,100,96,89,30.17,29.80,8,2,17,1.27
2012-12-26,53,50,45,49,46,42,98,87,79,30.14,29.89,14,5,21,0.19
2012-12-27,54,47,38,47,42,38,99,83,68,30.19,30.13,8,2,12,0.19
2012-12-28,48,43,35,44,41,35,100,92,77,30.20,30.05,6,1,11,0.25
2012-12-29,55,45,36,46,41,36,99,88,57,30.11,30.04,7,2,12,0.36
2012-12-30,53,40,32,46,38,31,100,92,69,30.22,30.09,5,1,9,0.01
2012-12-31,52,40,30,46,38,30,100,91,66,30.33,30.22,7,1,11,0.01